createdAt,value
2022-11-18T00:00:22.608Z,16.00
2022-11-18T00:01:22.629Z,11.70
2022-11-18T00:02:22.672Z,17.10
2022-11-18T00:03:22.520Z,13.40
2022-11-18T00:04:22.524Z,19.70
2022-11-18T00:05:22.493Z,15.20
2022-11-18T00:06:22.550Z,13.40
2022-11-18T00:07:22.558Z,14.00
2022-11-18T00:08:22.499Z,14.60
2022-11-18T00:09:22.460Z,14.30
2022-11-18T00:10:22.472Z,13.80
2022-11-18T00:11:22.838Z,14.00
2022-11-18T00:12:22.460Z,12.80
2022-11-18T00:13:22.431Z,13.90
2022-11-18T00:14:22.491Z,13.50
2022-11-18T00:15:25.225Z,11.20
2022-11-18T00:16:22.432Z,14.10
2022-11-18T00:17:22.424Z,17.90
2022-11-18T00:18:22.374Z,15.80
2022-11-18T00:19:22.388Z,13.70
2022-11-18T00:20:22.373Z,12.60
2022-11-18T00:21:22.361Z,13.80
2022-11-18T00:22:28.476Z,13.40
2022-11-18T00:23:23.195Z,14.90
2022-11-18T00:24:22.278Z,13.60
2022-11-18T00:25:22.288Z,12.50
2022-11-18T00:26:22.289Z,10.90
2022-11-18T00:27:22.282Z,15.70
2022-11-18T00:28:22.285Z,12.00
2022-11-18T00:29:22.250Z,13.60
2022-11-18T00:30:22.266Z,12.30
2022-11-18T00:31:22.274Z,15.00
2022-11-18T00:32:22.200Z,14.00
2022-11-18T00:33:22.197Z,16.10
2022-11-18T00:34:22.185Z,12.40
2022-11-18T00:35:22.167Z,17.80
2022-11-18T00:36:22.203Z,13.60
2022-11-18T00:37:22.157Z,15.80
2022-11-18T00:38:22.122Z,13.50
2022-11-18T00:39:22.207Z,12.90
2022-11-18T00:40:22.116Z,12.30
2022-11-18T00:41:22.123Z,15.60
2022-11-18T00:42:22.100Z,11.20
2022-11-18T00:43:22.069Z,13.20
2022-11-18T00:44:22.060Z,14.60
2022-11-18T00:45:22.045Z,13.50
2022-11-18T00:46:22.057Z,14.10
2022-11-18T00:47:22.046Z,15.30
2022-11-18T00:48:22.019Z,15.80
2022-11-18T00:49:22.026Z,16.20
2022-11-18T00:50:22.025Z,14.30
2022-11-18T00:51:22.066Z,16.50
2022-11-18T00:52:21.969Z,17.90
2022-11-18T00:53:21.972Z,14.00
2022-11-18T00:54:21.990Z,16.00
2022-11-18T00:55:21.940Z,15.80
2022-11-18T00:56:21.959Z,17.00
2022-11-18T00:57:21.972Z,18.10
2022-11-18T00:58:21.906Z,16.00
2022-11-18T00:59:22.063Z,16.80
2022-11-18T01:00:21.912Z,17.30
2022-11-18T01:01:21.951Z,16.90
2022-11-18T01:02:21.877Z,20.20
2022-11-18T01:03:21.848Z,19.60
2022-11-18T01:04:21.854Z,19.90
2022-11-18T01:05:21.825Z,15.80
2022-11-18T01:06:21.871Z,16.20
2022-11-18T01:07:21.838Z,19.40
2022-11-18T01:08:21.806Z,16.60
2022-11-18T01:09:21.791Z,18.40
2022-11-18T01:10:21.788Z,15.20
2022-11-18T01:11:21.811Z,14.30
2022-11-18T01:12:21.748Z,16.30
2022-11-18T01:13:21.743Z,19.80
2022-11-18T01:14:21.772Z,16.70
2022-11-18T01:15:21.714Z,22.40
2022-11-18T01:16:21.737Z,19.50
2022-11-18T01:17:21.690Z,15.30
2022-11-18T01:18:21.722Z,14.80
2022-11-18T01:19:21.715Z,17.00
2022-11-18T01:20:21.688Z,17.70
2022-11-18T01:21:21.692Z,15.30
2022-11-18T01:22:21.694Z,16.50
2022-11-18T01:23:21.628Z,18.50
2022-11-18T01:24:21.618Z,14.10
2022-11-18T01:25:21.612Z,14.50
2022-11-18T01:26:21.652Z,15.20
2022-11-18T01:27:21.618Z,21.10
2022-11-18T01:28:23.857Z,18.20
2022-11-18T01:29:21.598Z,15.90
2022-11-18T01:30:21.594Z,18.60
2022-11-18T01:31:21.593Z,19.70
2022-11-18T01:32:25.693Z,17.30
2022-11-18T01:33:21.562Z,14.90
2022-11-18T01:34:21.523Z,17.20
2022-11-18T01:35:21.528Z,24.30
2022-11-18T01:36:21.553Z,17.40
2022-11-18T01:37:21.487Z,18.20
2022-11-18T01:38:21.519Z,17.60
2022-11-18T01:39:21.456Z,20.60
2022-11-18T01:40:21.466Z,17.20
2022-11-18T01:41:21.496Z,16.60
2022-11-18T01:42:21.437Z,13.30
2022-11-18T01:43:21.437Z,17.20
2022-11-18T01:44:21.407Z,12.10
2022-11-18T01:45:21.418Z,13.40
2022-11-18T01:46:21.438Z,19.10
2022-11-18T01:47:21.397Z,14.50
2022-11-18T01:48:21.393Z,14.70
2022-11-18T01:49:21.383Z,18.10
2022-11-18T01:50:21.367Z,17.20
2022-11-18T01:51:21.340Z,12.60
2022-11-18T01:52:21.372Z,15.80
2022-11-18T01:53:21.353Z,18.10
2022-11-18T01:54:21.305Z,13.10
2022-11-18T01:55:21.297Z,18.30
2022-11-18T01:56:21.319Z,15.40
2022-11-18T01:57:21.305Z,14.70
2022-11-18T01:58:22.204Z,17.00
2022-11-18T01:59:21.381Z,16.40
2022-11-18T02:00:21.233Z,17.70
2022-11-18T02:01:21.271Z,20.60
2022-11-18T02:02:21.219Z,19.20
2022-11-18T02:03:21.245Z,23.10
2022-11-18T02:04:21.237Z,23.40
2022-11-18T02:05:21.216Z,27.20
2022-11-18T02:06:21.185Z,23.30
2022-11-18T02:07:21.770Z,24.40
2022-11-18T02:08:21.161Z,27.40
2022-11-18T02:09:21.143Z,27.40
2022-11-18T02:10:21.160Z,29.40
2022-11-18T02:11:21.116Z,27.80
2022-11-18T02:12:21.175Z,32.00
2022-11-18T02:13:21.104Z,27.20
2022-11-18T02:14:21.078Z,30.40
2022-11-18T02:15:21.096Z,30.90
2022-11-18T02:16:21.088Z,32.90
2022-11-18T02:17:21.071Z,27.90
2022-11-18T02:18:21.079Z,24.20
2022-11-18T02:19:21.018Z,26.10
2022-11-18T02:20:21.079Z,28.00
2022-11-18T02:21:21.041Z,30.00
2022-11-18T02:22:20.995Z,27.60
2022-11-18T02:23:20.979Z,25.70
2022-11-18T02:24:21.013Z,30.70
2022-11-18T02:25:21.008Z,26.70
2022-11-18T02:26:20.936Z,26.20
2022-11-18T02:27:20.938Z,22.50
2022-11-18T02:28:20.949Z,23.90
2022-11-18T02:29:20.949Z,21.90
2022-11-18T02:30:20.905Z,21.80
2022-11-18T02:31:20.928Z,21.50
2022-11-18T02:32:20.894Z,24.60
2022-11-18T02:33:20.870Z,23.40
2022-11-18T02:34:20.875Z,22.80
2022-11-18T02:35:20.884Z,19.90
2022-11-18T02:36:20.915Z,19.20
2022-11-18T02:37:20.835Z,22.40
2022-11-18T02:38:20.827Z,19.70
2022-11-18T02:39:20.845Z,16.60
2022-11-18T02:40:20.815Z,19.20
2022-11-18T02:41:20.823Z,18.20
2022-11-18T02:42:20.793Z,21.10
2022-11-18T02:43:20.759Z,18.10
2022-11-18T02:44:20.730Z,18.20
2022-11-18T02:45:20.813Z,17.50
2022-11-18T02:46:20.773Z,19.30
2022-11-18T02:47:20.756Z,20.20
2022-11-18T02:48:20.691Z,20.70
2022-11-18T02:49:20.676Z,21.80
2022-11-18T02:50:20.672Z,20.70
2022-11-18T02:51:20.689Z,16.50
2022-11-18T02:52:20.729Z,18.40
2022-11-18T02:53:20.636Z,17.90
2022-11-18T02:54:20.625Z,15.90
2022-11-18T02:55:20.620Z,18.90
2022-11-18T02:56:20.613Z,17.40
2022-11-18T02:57:20.659Z,19.60
2022-11-18T02:58:20.590Z,18.20
2022-11-18T02:59:20.574Z,20.50
2022-11-18T03:00:20.603Z,13.30
2022-11-18T03:01:20.723Z,14.70
2022-11-18T03:02:20.531Z,13.90
2022-11-18T03:03:20.533Z,15.40
2022-11-18T03:04:20.543Z,17.00
2022-11-18T03:05:20.544Z,16.80
2022-11-18T03:06:20.500Z,15.80
2022-11-18T03:07:20.562Z,16.30
2022-11-18T03:08:20.491Z,18.50
2022-11-18T03:09:20.749Z,17.00
2022-11-18T03:10:20.448Z,15.80
2022-11-18T03:11:20.464Z,16.70
2022-11-18T03:12:20.411Z,13.40
2022-11-18T03:13:20.471Z,16.30
2022-11-18T03:14:20.398Z,17.20
2022-11-18T03:15:20.390Z,14.80
2022-11-18T03:16:20.387Z,14.40
2022-11-18T03:17:20.370Z,20.90
2022-11-18T03:18:20.446Z,16.60
2022-11-18T03:19:20.470Z,16.60
2022-11-18T03:20:20.333Z,15.20
2022-11-18T03:21:20.328Z,17.20
2022-11-18T03:22:20.343Z,14.60
2022-11-18T03:23:20.283Z,14.90
2022-11-18T03:24:20.336Z,15.10
2022-11-18T03:25:20.281Z,16.80
2022-11-18T03:26:20.285Z,12.80
2022-11-18T03:27:20.269Z,16.00
2022-11-18T03:28:20.264Z,17.20
2022-11-18T03:29:20.424Z,13.70
2022-11-18T03:30:20.232Z,19.60
2022-11-18T03:31:20.231Z,15.30
2022-11-18T03:32:20.187Z,14.40
2022-11-18T03:33:20.183Z,17.00
2022-11-18T03:34:20.228Z,16.30
2022-11-18T03:35:20.172Z,19.00
2022-11-18T03:36:20.165Z,19.60
2022-11-18T03:37:20.154Z,17.90
2022-11-18T03:38:20.123Z,14.80
2022-11-18T03:39:20.232Z,16.40
2022-11-18T03:40:20.140Z,17.80
2022-11-18T03:41:20.107Z,20.90
2022-11-18T03:42:20.095Z,18.70
2022-11-18T03:43:20.084Z,19.40
2022-11-18T03:44:20.096Z,19.40
2022-11-18T03:45:20.116Z,17.50
2022-11-18T03:46:20.039Z,17.30
2022-11-18T03:47:20.026Z,16.60
2022-11-18T03:48:20.006Z,16.90
2022-11-18T03:49:20.147Z,16.60
2022-11-18T03:50:20.031Z,19.00
2022-11-18T03:51:19.990Z,16.80
2022-11-18T03:52:19.972Z,17.40
2022-11-18T03:53:19.958Z,17.10
2022-11-18T03:54:19.984Z,21.70
2022-11-18T03:55:19.996Z,17.70
2022-11-18T03:56:19.932Z,20.50
2022-11-18T03:57:19.955Z,20.30
2022-11-18T03:58:19.902Z,20.90
2022-11-18T03:59:20.319Z,17.40
2022-11-18T04:00:19.873Z,19.10
2022-11-18T04:01:20.001Z,18.80
2022-11-18T04:02:19.934Z,19.70
2022-11-18T04:03:19.855Z,18.50
2022-11-18T04:04:19.845Z,19.30
2022-11-18T04:05:19.874Z,19.40
2022-11-18T04:06:19.904Z,22.30
2022-11-18T04:07:19.927Z,20.70
2022-11-18T04:08:19.789Z,20.90
2022-11-18T04:09:20.127Z,20.20
2022-11-18T04:10:19.818Z,18.80
2022-11-18T04:11:19.804Z,23.30
2022-11-18T04:12:19.767Z,17.70
2022-11-18T04:13:19.771Z,21.30
2022-11-18T04:14:19.764Z,20.10
2022-11-18T04:15:20.155Z,22.10
2022-11-18T04:16:19.717Z,19.80
2022-11-18T04:17:19.727Z,19.40
2022-11-18T04:18:19.711Z,22.60
2022-11-18T04:19:20.060Z,17.80
2022-11-18T04:20:19.641Z,23.20
2022-11-18T04:21:19.634Z,21.70
2022-11-18T04:22:19.641Z,21.30
2022-11-18T04:23:19.611Z,19.20
2022-11-18T04:24:19.595Z,21.20
2022-11-18T04:25:19.591Z,23.80
2022-11-18T04:26:19.577Z,22.60
2022-11-18T04:27:19.592Z,21.90
2022-11-18T04:28:19.553Z,21.80
2022-11-18T04:29:19.915Z,21.70
2022-11-18T04:30:19.535Z,23.20
2022-11-18T04:31:19.526Z,24.20
2022-11-18T04:32:19.505Z,25.80
2022-11-18T04:33:19.523Z,20.60
2022-11-18T04:34:19.484Z,20.40
2022-11-18T04:35:19.479Z,21.70
2022-11-18T04:36:19.462Z,22.90
2022-11-18T04:37:19.455Z,22.90
2022-11-18T04:38:22.095Z,21.70
2022-11-18T04:39:19.755Z,20.90
2022-11-18T04:40:19.422Z,23.10
2022-11-18T04:41:19.412Z,23.50
2022-11-18T04:42:19.395Z,23.50
2022-11-18T04:43:19.409Z,22.20
2022-11-18T04:44:19.376Z,21.60
2022-11-18T04:45:19.364Z,24.90
2022-11-18T04:46:19.351Z,23.30
2022-11-18T04:47:19.346Z,19.60
2022-11-18T04:48:19.363Z,23.80
2022-11-18T04:49:19.616Z,25.00
2022-11-18T04:50:19.310Z,21.90
2022-11-18T04:51:19.305Z,20.60
2022-11-18T04:52:19.296Z,25.40
2022-11-18T04:53:19.284Z,23.70
2022-11-18T04:54:19.286Z,24.00
2022-11-18T04:55:19.276Z,23.70
2022-11-18T04:56:19.245Z,28.60
2022-11-18T04:57:19.246Z,23.40
2022-11-18T04:58:19.214Z,27.00
2022-11-18T04:59:19.814Z,22.80
2022-11-18T05:00:19.191Z,27.20
2022-11-18T05:01:19.222Z,23.40
2022-11-18T05:02:19.172Z,23.50
2022-11-18T05:03:19.165Z,24.20
2022-11-18T05:04:19.195Z,27.40
2022-11-18T05:05:19.143Z,21.00
2022-11-18T05:06:19.128Z,24.60
2022-11-18T05:07:19.145Z,27.90
2022-11-18T05:08:19.104Z,24.40
2022-11-18T05:09:19.622Z,24.80
2022-11-18T05:10:19.101Z,25.60
2022-11-18T05:11:19.072Z,26.90
2022-11-18T05:12:19.060Z,25.30
2022-11-18T05:13:19.052Z,25.30
2022-11-18T05:14:19.043Z,27.00
2022-11-18T05:15:19.052Z,28.20
2022-11-18T05:16:19.018Z,24.40
2022-11-18T05:17:19.004Z,21.20
2022-11-18T05:18:19.006Z,19.70
2022-11-18T05:19:19.211Z,23.90
2022-11-18T05:20:19.005Z,29.00
2022-11-18T05:21:18.966Z,26.00
2022-11-18T05:22:18.950Z,27.20
2022-11-18T05:23:18.934Z,26.40
2022-11-18T05:24:18.930Z,24.40
2022-11-18T05:25:18.949Z,23.60
2022-11-18T05:26:18.909Z,32.10
2022-11-18T05:27:18.894Z,29.10
2022-11-18T05:28:18.886Z,31.40
2022-11-18T05:29:19.066Z,31.20
2022-11-18T05:30:18.870Z,24.70
2022-11-18T05:31:18.869Z,22.00
2022-11-18T05:32:18.838Z,23.20
2022-11-18T05:33:18.824Z,28.40
2022-11-18T05:34:18.816Z,25.70
2022-11-18T05:35:18.802Z,27.40
2022-11-18T05:36:18.819Z,21.90
2022-11-18T05:37:18.910Z,25.30
2022-11-18T05:38:18.772Z,28.10
2022-11-18T05:39:19.132Z,22.30
2022-11-18T05:40:18.768Z,29.40
2022-11-18T05:41:18.769Z,28.30
2022-11-18T05:42:18.728Z,28.40
2022-11-18T05:43:18.747Z,27.70
2022-11-18T05:44:18.718Z,29.30
2022-11-18T05:45:18.692Z,27.10
2022-11-18T05:46:18.696Z,27.10
2022-11-18T05:47:18.689Z,26.30
2022-11-18T05:48:18.658Z,27.10
2022-11-18T05:49:18.825Z,25.50
2022-11-18T05:50:21.473Z,23.10
2022-11-18T05:51:18.631Z,30.40
2022-11-18T05:52:18.619Z,24.60
2022-11-18T05:53:18.628Z,29.60
2022-11-18T05:54:18.683Z,26.60
2022-11-18T05:55:18.577Z,30.60
2022-11-18T05:56:18.572Z,23.20
2022-11-18T05:57:18.559Z,24.00
2022-11-18T05:58:18.575Z,32.90
2022-11-18T05:59:18.722Z,29.40
2022-11-18T06:00:18.608Z,24.80
2022-11-18T06:01:18.528Z,24.30
2022-11-18T06:02:18.504Z,32.10
2022-11-18T06:03:18.536Z,28.40
2022-11-18T06:04:18.504Z,26.40
2022-11-18T06:05:18.496Z,26.50
2022-11-18T06:06:18.461Z,24.40
2022-11-18T06:07:18.472Z,29.20
2022-11-18T06:08:18.436Z,28.60
2022-11-18T06:09:18.595Z,29.20
2022-11-18T06:10:18.475Z,24.90
2022-11-18T06:11:18.398Z,31.30
2022-11-18T06:12:18.393Z,27.40
2022-11-18T06:13:18.376Z,29.60
2022-11-18T06:14:18.370Z,29.00
2022-11-18T06:15:18.377Z,27.50
2022-11-18T06:16:18.346Z,28.10
2022-11-18T06:17:18.339Z,29.90
2022-11-18T06:18:18.323Z,25.60
2022-11-18T06:19:18.609Z,30.70
2022-11-18T06:20:18.349Z,27.40
2022-11-18T06:21:18.298Z,27.10
2022-11-18T06:22:18.283Z,27.30
2022-11-18T06:23:18.277Z,27.10
2022-11-18T06:24:18.254Z,28.00
2022-11-18T06:25:18.254Z,24.70
2022-11-18T06:26:18.253Z,28.00
2022-11-18T06:27:18.223Z,29.90
2022-11-18T06:28:18.208Z,26.90
2022-11-18T06:29:21.725Z,29.30
2022-11-18T06:30:18.192Z,30.30
2022-11-18T06:31:18.202Z,26.40
2022-11-18T06:32:18.174Z,29.50
2022-11-18T06:33:18.167Z,25.60
2022-11-18T06:34:18.191Z,25.10
2022-11-18T06:35:18.137Z,27.10
2022-11-18T06:36:18.141Z,26.90
2022-11-18T06:37:18.117Z,28.10
2022-11-18T06:38:18.141Z,24.80
2022-11-18T06:39:18.273Z,28.00
2022-11-18T06:40:18.077Z,27.90
2022-11-18T06:41:18.096Z,24.70
2022-11-18T06:42:18.150Z,25.20
2022-11-18T06:43:18.041Z,31.20
2022-11-18T06:44:18.027Z,28.70
2022-11-18T06:45:18.144Z,25.20
2022-11-18T06:46:18.003Z,31.50
2022-11-18T06:47:18.027Z,33.00
2022-11-18T06:48:18.006Z,33.90
2022-11-18T06:49:18.258Z,30.90
2022-11-18T06:50:17.992Z,30.60
2022-11-18T06:51:17.985Z,31.00
2022-11-18T06:52:18.010Z,28.60
2022-11-18T06:53:17.974Z,30.80
2022-11-18T06:54:17.958Z,33.40
2022-11-18T06:55:17.907Z,28.20
2022-11-18T06:56:17.901Z,28.80
2022-11-18T06:57:17.982Z,31.10
2022-11-18T06:58:17.871Z,33.00
2022-11-18T06:59:18.240Z,30.60
2022-11-18T07:00:17.850Z,28.00
2022-11-18T07:01:17.965Z,30.10
2022-11-18T07:02:17.850Z,29.90
2022-11-18T07:03:17.816Z,32.40
2022-11-18T07:04:17.807Z,33.10
2022-11-18T07:05:17.791Z,34.30
2022-11-18T07:06:17.785Z,30.60
2022-11-18T07:07:17.855Z,31.30
2022-11-18T07:08:17.760Z,30.70
2022-11-18T07:09:17.985Z,29.90
2022-11-18T07:10:17.747Z,32.20
2022-11-18T07:11:17.723Z,35.30
2022-11-18T07:12:17.739Z,35.00
2022-11-18T07:13:17.702Z,34.00
2022-11-18T07:14:17.700Z,34.50
2022-11-18T07:15:17.680Z,32.60
2022-11-18T07:16:17.670Z,32.70
2022-11-18T07:17:17.684Z,36.00
2022-11-18T07:18:17.643Z,39.40
2022-11-18T07:19:18.008Z,35.00
2022-11-18T07:20:17.625Z,31.70
2022-11-18T07:21:17.615Z,36.90
2022-11-18T07:22:17.621Z,32.10
2022-11-18T07:23:17.598Z,34.30
2022-11-18T07:24:17.585Z,33.40
2022-11-18T07:25:17.577Z,33.90
2022-11-18T07:26:17.556Z,35.10
2022-11-18T07:27:17.576Z,28.70
2022-11-18T07:28:17.536Z,35.70
2022-11-18T07:29:17.811Z,34.20
2022-11-18T07:30:17.513Z,29.10
2022-11-18T07:31:17.508Z,30.10
2022-11-18T07:32:17.513Z,35.50
2022-11-18T07:33:17.484Z,32.90
2022-11-18T07:34:17.574Z,31.80
2022-11-18T07:35:17.465Z,36.50
2022-11-18T07:36:17.444Z,40.60
2022-11-18T07:37:17.445Z,35.10
2022-11-18T07:38:17.472Z,34.10
2022-11-18T07:39:17.841Z,33.80
2022-11-18T07:40:17.400Z,39.20
2022-11-18T07:41:17.395Z,41.80
2022-11-18T07:42:17.375Z,34.70
2022-11-18T07:43:17.372Z,39.60
2022-11-18T07:44:17.385Z,38.70
2022-11-18T07:45:17.352Z,32.10
2022-11-18T07:46:17.334Z,34.80
2022-11-18T07:47:17.334Z,35.20
2022-11-18T07:48:17.311Z,31.80
2022-11-18T07:49:17.628Z,38.60
2022-11-18T07:50:17.322Z,29.00
2022-11-18T07:51:17.280Z,30.90
2022-11-18T07:52:17.271Z,34.70
2022-11-18T07:53:17.258Z,36.30
2022-11-18T07:54:17.285Z,35.90
2022-11-18T07:55:17.243Z,35.30
2022-11-18T07:56:17.246Z,33.50
2022-11-18T07:57:17.218Z,30.20
2022-11-18T07:58:17.201Z,32.00
2022-11-18T07:59:17.644Z,34.10
2022-11-18T08:00:17.186Z,34.90
2022-11-18T08:01:17.218Z,34.60
2022-11-18T08:02:17.156Z,37.70
2022-11-18T08:03:17.153Z,34.20
2022-11-18T08:04:17.133Z,36.30
2022-11-18T08:05:18.307Z,37.10
2022-11-18T08:06:17.108Z,38.80
2022-11-18T08:07:17.233Z,40.50
2022-11-18T08:08:17.090Z,35.10
2022-11-18T08:09:17.463Z,36.60
2022-11-18T08:10:17.066Z,34.30
2022-11-18T08:11:21.845Z,37.60
2022-11-18T08:12:17.047Z,35.70
2022-11-18T08:13:17.056Z,36.50
2022-11-18T08:14:17.023Z,37.00
2022-11-18T08:15:17.011Z,34.30
2022-11-18T08:16:17.000Z,38.70
2022-11-18T08:17:16.988Z,36.90
2022-11-18T08:18:16.983Z,37.60
2022-11-18T08:19:17.694Z,49.60
2022-11-18T08:20:16.959Z,45.40
2022-11-18T08:21:16.944Z,34.80
2022-11-18T08:22:16.936Z,44.80
2022-11-18T08:23:16.922Z,35.00
2022-11-18T08:24:16.914Z,40.90
2022-11-18T08:25:16.922Z,39.10
2022-11-18T08:26:16.892Z,43.00
2022-11-18T08:27:16.876Z,46.40
2022-11-18T08:28:16.901Z,40.10
2022-11-18T08:29:20.381Z,41.50
2022-11-18T08:30:16.866Z,47.00
2022-11-18T08:31:16.868Z,40.70
2022-11-18T08:32:16.828Z,36.90
2022-11-18T08:33:16.854Z,36.60
2022-11-18T08:34:16.831Z,40.20
2022-11-18T08:35:16.785Z,36.00
2022-11-18T08:36:16.776Z,45.50
2022-11-18T08:37:16.794Z,40.50
2022-11-18T08:38:16.758Z,36.60
2022-11-18T08:39:16.974Z,33.00
2022-11-18T08:40:16.738Z,37.90
2022-11-18T08:41:16.716Z,39.50
2022-11-18T08:42:16.715Z,43.00
2022-11-18T08:43:16.746Z,34.60
2022-11-18T08:44:16.694Z,38.40
2022-11-18T08:45:16.672Z,36.30
2022-11-18T08:46:16.668Z,37.60
2022-11-18T08:47:16.660Z,37.40
2022-11-18T08:48:16.644Z,39.50
2022-11-18T08:49:17.040Z,38.10
2022-11-18T08:50:16.625Z,36.60
2022-11-18T08:51:16.607Z,39.00
2022-11-18T08:52:16.599Z,41.80
2022-11-18T08:53:16.586Z,48.30
2022-11-18T08:54:16.611Z,44.20
2022-11-18T08:55:16.563Z,40.60
2022-11-18T08:56:16.558Z,40.60
2022-11-18T08:57:16.551Z,40.60
2022-11-18T08:58:16.537Z,48.30
2022-11-18T08:59:17.058Z,36.80
2022-11-18T09:00:16.516Z,36.50
2022-11-18T09:01:16.553Z,36.90
2022-11-18T09:02:16.488Z,45.10
2022-11-18T09:03:16.473Z,41.80
2022-11-18T09:04:16.470Z,39.50
2022-11-18T09:05:16.472Z,38.10
2022-11-18T09:06:16.447Z,41.90
2022-11-18T09:07:16.469Z,36.20
2022-11-18T09:08:16.425Z,37.00
2022-11-18T09:09:16.408Z,36.40
2022-11-18T09:10:16.440Z,42.50
2022-11-18T09:11:16.385Z,39.40
2022-11-18T09:12:16.379Z,35.70
2022-11-18T09:13:44.710Z,37.50
2022-11-18T09:15:16.920Z,37.20
2022-11-18T09:16:16.360Z,39.80
2022-11-18T09:17:16.322Z,46.70
2022-11-18T09:18:16.372Z,36.20
2022-11-18T09:20:16.295Z,36.10
2022-11-18T09:21:16.275Z,35.80
2022-11-18T09:22:16.299Z,40.10
2022-11-18T09:23:16.283Z,39.20
2022-11-18T09:24:16.783Z,38.30
2022-11-18T09:25:16.229Z,33.90
2022-11-18T09:26:16.216Z,34.00
2022-11-18T09:27:17.601Z,38.40
2022-11-18T09:28:16.219Z,49.70
2022-11-18T09:29:16.183Z,37.80
2022-11-18T09:30:16.169Z,30.50
2022-11-18T09:31:16.164Z,44.40
2022-11-18T09:32:16.150Z,38.60
2022-11-18T09:33:20.511Z,35.30
2022-11-18T09:34:16.514Z,35.10
2022-11-18T09:35:16.124Z,38.20
2022-11-18T09:36:16.156Z,37.10
2022-11-18T09:37:16.096Z,32.80
2022-11-18T09:38:16.081Z,32.20
2022-11-18T09:39:16.241Z,31.70
2022-11-18T09:40:16.089Z,33.70
2022-11-18T09:41:16.459Z,41.70
2022-11-18T09:42:16.036Z,46.60
2022-11-18T09:43:16.030Z,40.70
2022-11-18T09:44:16.011Z,35.80
2022-11-18T09:45:20.736Z,36.50
2022-11-18T09:46:16.020Z,36.40
2022-11-18T09:47:15.986Z,41.00
2022-11-18T09:48:15.966Z,39.60
2022-11-18T09:49:16.341Z,34.20
2022-11-18T09:50:47.242Z,33.10
2022-11-18T09:51:16.070Z,44.30
2022-11-18T09:52:15.979Z,39.50
2022-11-18T09:53:15.916Z,36.70
2022-11-18T09:54:16.343Z,35.50
2022-11-18T09:55:15.932Z,34.50
2022-11-18T09:56:16.029Z,32.50
2022-11-18T09:57:15.967Z,33.40
2022-11-18T09:58:15.859Z,29.70
2022-11-18T09:59:15.867Z,29.40
2022-11-18T10:00:15.832Z,28.20
2022-11-18T10:01:15.901Z,36.50
2022-11-18T10:02:15.913Z,32.60
2022-11-18T10:03:15.838Z,25.50
2022-11-18T10:04:16.105Z,32.70
2022-11-18T10:05:15.780Z,34.30
2022-11-18T10:06:20.536Z,31.70
2022-11-18T10:07:15.846Z,37.90
2022-11-18T10:08:15.747Z,38.90
2022-11-18T10:09:15.737Z,33.20
2022-11-18T10:10:15.721Z,44.70
2022-11-18T10:11:15.718Z,39.60
2022-11-18T10:12:15.702Z,34.80
2022-11-18T10:13:15.714Z,34.60
2022-11-18T10:14:15.963Z,32.10
2022-11-18T10:15:15.836Z,32.60
2022-11-18T10:16:15.660Z,35.00
2022-11-18T10:17:15.645Z,31.40
2022-11-18T10:18:26.428Z,34.80
2022-11-18T10:19:15.710Z,34.20
2022-11-18T10:20:15.620Z,37.00
2022-11-18T10:21:15.602Z,36.30
2022-11-18T10:22:21.066Z,28.80
2022-11-18T10:23:15.603Z,34.10
2022-11-18T10:24:16.026Z,35.00
2022-11-18T10:25:15.550Z,33.10
2022-11-18T10:26:15.548Z,36.30
2022-11-18T10:27:15.534Z,30.60
2022-11-18T10:28:15.550Z,35.20
2022-11-18T10:29:15.510Z,33.20
2022-11-18T10:30:15.520Z,31.50
2022-11-18T10:31:15.484Z,34.40
2022-11-18T10:32:15.485Z,33.00
2022-11-18T10:33:15.465Z,33.90
2022-11-18T10:34:15.797Z,39.60
2022-11-18T10:35:15.443Z,33.00
2022-11-18T10:36:15.434Z,37.30
2022-11-18T10:37:15.424Z,35.50
2022-11-18T10:38:15.415Z,31.50
2022-11-18T10:39:15.421Z,34.60
2022-11-18T10:40:15.389Z,36.00
2022-11-18T10:41:15.377Z,39.30
2022-11-18T10:42:15.375Z,37.60
2022-11-18T10:43:15.352Z,34.80
2022-11-18T10:44:15.379Z,36.90
2022-11-18T10:45:15.331Z,36.40
2022-11-18T10:46:15.327Z,37.00
2022-11-18T10:47:15.309Z,38.90
2022-11-18T10:48:15.306Z,38.00
2022-11-18T10:49:15.304Z,40.90
2022-11-18T10:50:15.287Z,38.20
2022-11-18T10:51:15.265Z,37.40
2022-11-18T10:52:15.276Z,36.30
2022-11-18T10:53:15.246Z,41.60
2022-11-18T10:54:15.844Z,35.90
2022-11-18T10:55:15.251Z,46.30
2022-11-18T10:56:15.217Z,45.10
2022-11-18T10:57:15.196Z,40.00
2022-11-18T10:58:15.273Z,37.60
2022-11-18T10:59:15.181Z,38.50
2022-11-18T11:00:15.189Z,37.40
2022-11-18T11:01:15.221Z,41.00
2022-11-18T11:02:15.219Z,41.10
2022-11-18T11:03:15.132Z,44.20
2022-11-18T11:04:15.566Z,41.00
2022-11-18T11:05:15.135Z,41.50
2022-11-18T11:06:15.101Z,42.60
2022-11-18T11:07:15.144Z,40.00
2022-11-18T11:08:35.656Z,40.20
2022-11-18T11:09:15.076Z,42.00
2022-11-18T11:10:15.092Z,46.90
2022-11-18T11:11:15.043Z,41.20
2022-11-18T11:12:15.030Z,37.50
2022-11-18T11:13:15.038Z,43.60
2022-11-18T11:14:15.060Z,44.00
2022-11-18T11:15:15.016Z,48.30
2022-11-18T11:16:15.006Z,41.90
2022-11-18T11:17:15.135Z,45.60
2022-11-18T11:18:14.975Z,44.30
2022-11-18T11:19:14.989Z,46.20
2022-11-18T11:20:15.046Z,42.90
2022-11-18T11:21:14.954Z,35.70
2022-11-18T11:22:14.921Z,40.60
2022-11-18T11:23:20.409Z,49.50
2022-11-18T11:24:15.328Z,52.60
2022-11-18T11:25:14.885Z,42.90
2022-11-18T11:28:15.491Z,43.50
2022-11-18T11:29:15.035Z,43.50
2022-11-18T11:30:14.855Z,41.80
2022-11-18T11:31:14.855Z,44.90
2022-11-18T11:32:14.816Z,40.70
2022-11-18T11:33:14.795Z,50.50
2022-11-18T11:34:14.789Z,56.40
2022-11-18T11:35:14.774Z,43.20
2022-11-18T11:36:14.792Z,55.40
2022-11-18T11:37:14.775Z,45.60
2022-11-18T11:38:14.746Z,40.50
2022-11-18T11:39:14.727Z,50.50
2022-11-18T11:40:14.731Z,48.50
2022-11-18T11:41:14.720Z,37.40
2022-11-18T11:42:14.728Z,41.30
2022-11-18T11:43:14.685Z,44.70
2022-11-18T11:44:14.687Z,51.10
2022-11-18T11:45:14.662Z,42.00
2022-11-18T11:46:14.660Z,43.40
2022-11-18T11:47:14.680Z,46.30
2022-11-18T11:48:14.634Z,42.90
2022-11-18T11:49:14.852Z,47.00
2022-11-18T11:50:14.686Z,42.10
2022-11-18T11:51:14.591Z,45.00
2022-11-18T11:52:14.624Z,41.80
2022-11-18T11:53:14.575Z,41.20
2022-11-18T11:54:14.567Z,41.50
2022-11-18T11:55:14.554Z,42.10
2022-11-18T11:56:19.628Z,43.40
2022-11-18T11:57:14.533Z,40.30
2022-11-18T11:58:14.575Z,40.50
2022-11-18T11:59:14.505Z,39.20
2022-11-18T12:00:14.558Z,39.50
2022-11-18T12:01:14.480Z,39.90
2022-11-18T12:02:14.478Z,37.40
2022-11-18T12:03:14.580Z,39.40
2022-11-18T12:04:14.457Z,39.90
2022-11-18T12:05:14.437Z,42.00
2022-11-18T12:06:14.430Z,37.60
2022-11-18T12:07:14.491Z,39.10
2022-11-18T12:08:14.435Z,41.90
2022-11-18T12:09:14.395Z,42.10
2022-11-18T12:10:14.389Z,37.50
2022-11-18T12:11:14.370Z,39.00
2022-11-18T12:12:14.366Z,40.00
2022-11-18T12:13:14.381Z,38.70
2022-11-18T12:14:14.348Z,36.50
2022-11-18T12:15:14.332Z,37.50
2022-11-18T12:16:14.324Z,40.80
2022-11-18T12:17:14.332Z,34.90
2022-11-18T12:18:14.295Z,35.00
2022-11-18T12:19:14.310Z,34.70
2022-11-18T12:20:14.277Z,33.90
2022-11-18T12:21:14.265Z,36.30
2022-11-18T12:22:14.249Z,37.90
2022-11-18T12:23:14.248Z,35.20
2022-11-18T12:24:14.250Z,33.70
2022-11-18T12:25:14.219Z,30.00
2022-11-18T12:26:14.204Z,28.30
2022-11-18T12:27:14.227Z,28.40
2022-11-18T12:28:14.187Z,27.30
2022-11-18T12:29:14.172Z,27.90
2022-11-18T12:30:14.159Z,32.10
2022-11-18T12:31:14.151Z,27.80
2022-11-18T12:32:14.160Z,26.10
2022-11-18T12:33:14.134Z,28.90
2022-11-18T12:34:14.119Z,25.70
2022-11-18T12:35:14.140Z,26.70
2022-11-18T12:36:14.090Z,26.10
2022-11-18T12:37:14.107Z,26.70
2022-11-18T12:38:14.072Z,25.80
2022-11-18T12:39:14.062Z,25.20
2022-11-18T12:40:14.048Z,31.10
2022-11-18T12:41:14.049Z,25.40
2022-11-18T12:42:14.051Z,26.30
2022-11-18T12:43:14.017Z,29.70
2022-11-18T12:44:14.019Z,24.50
2022-11-18T12:45:13.996Z,26.20
2022-11-18T12:46:13.984Z,26.30
2022-11-18T12:47:13.999Z,20.70
2022-11-18T12:48:13.959Z,24.10
2022-11-18T12:49:13.955Z,25.10
2022-11-18T12:50:13.967Z,22.60
2022-11-18T12:51:13.941Z,23.00
2022-11-18T12:52:13.940Z,21.30
2022-11-18T12:53:13.908Z,25.20
2022-11-18T12:54:14.034Z,23.80
2022-11-18T12:55:13.886Z,25.60
2022-11-18T12:56:13.866Z,22.90